createdAt,value
2023-04-18T00:05:55.412Z,3.22
2023-04-18T00:11:57.254Z,3.95
2023-04-18T00:18:00.878Z,3.97
2023-04-18T00:24:02.775Z,4.00
2023-04-18T00:30:05.755Z,4.00
2023-04-18T00:36:07.672Z,3.67
2023-04-18T00:42:09.484Z,3.85
2023-04-18T00:48:11.490Z,3.80
2023-04-18T00:54:14.288Z,4.10
2023-04-18T01:00:16.369Z,4.65
2023-04-18T01:06:18.299Z,4.85
2023-04-18T01:12:20.091Z,5.10
2023-04-18T01:18:22.622Z,5.03
2023-04-18T01:24:26.761Z,4.95
2023-04-18T01:30:28.616Z,5.70
2023-04-18T01:36:32.907Z,4.97
2023-04-18T01:42:34.956Z,5.13
2023-04-18T01:48:36.705Z,5.18
2023-04-18T01:54:38.592Z,5.28
2023-04-18T02:00:40.635Z,5.10
2023-04-18T02:06:42.735Z,5.22
2023-04-18T02:12:44.549Z,5.05
2023-04-18T02:18:46.740Z,5.35
2023-04-18T02:24:48.494Z,5.50
2023-04-18T02:30:50.438Z,5.90
2023-04-18T02:36:52.231Z,5.22
2023-04-18T02:42:54.100Z,5.20
2023-04-18T02:48:55.886Z,6.15
2023-04-18T02:54:57.690Z,7.10
2023-04-18T03:00:59.515Z,6.90
2023-04-18T03:07:01.494Z,5.72
2023-04-18T03:13:03.306Z,6.55
2023-04-18T03:19:05.691Z,6.72
2023-04-18T03:25:07.987Z,6.68
2023-04-18T03:31:09.937Z,6.30
2023-04-18T03:37:11.753Z,7.68
2023-04-18T03:43:13.521Z,7.82
2023-04-18T03:49:15.335Z,8.30
2023-04-18T03:55:17.429Z,7.53
2023-04-18T04:01:19.169Z,8.00
2023-04-18T04:07:21.018Z,9.50
2023-04-18T04:13:22.788Z,10.00
2023-04-18T04:19:24.715Z,10.40
2023-04-18T04:25:29.794Z,11.98
2023-04-18T04:31:32.251Z,12.10
2023-04-18T04:37:34.629Z,10.85
2023-04-18T04:43:36.551Z,10.13
2023-04-18T04:49:38.290Z,9.73
2023-04-18T04:55:40.105Z,10.15
2023-04-18T05:01:44.358Z,11.02
2023-04-18T05:07:46.465Z,10.82
2023-04-18T05:13:48.177Z,11.18
2023-04-18T05:19:49.950Z,11.52
2023-04-18T05:25:52.434Z,12.55
2023-04-18T05:31:54.235Z,11.57
2023-04-18T05:37:56.038Z,11.30
2023-04-18T05:44:04.865Z,11.63
2023-04-18T05:50:08.287Z,12.95
2023-04-18T05:56:10.097Z,12.20
2023-04-18T06:02:13.837Z,11.40
2023-04-18T06:08:15.686Z,12.23
2023-04-18T06:14:17.483Z,13.88
2023-04-18T06:20:19.270Z,14.20
2023-04-18T06:26:21.153Z,13.73
2023-04-18T06:32:22.918Z,14.52
2023-04-18T06:38:24.751Z,13.65
2023-04-18T06:44:26.471Z,14.48
2023-04-18T06:50:29.659Z,14.55
2023-04-18T06:56:32.121Z,14.52
2023-04-18T07:02:37.592Z,14.13
2023-04-18T07:08:39.582Z,15.13
2023-04-18T07:14:41.360Z,12.70
2023-04-18T07:20:43.272Z,13.88
2023-04-18T07:26:45.953Z,13.80
2023-04-18T07:32:47.989Z,13.73
2023-04-18T07:38:49.942Z,13.00
2023-04-18T07:44:57.772Z,13.52
2023-04-18T07:51:00.018Z,12.65
2023-04-18T07:57:02.129Z,12.90
2023-04-18T08:03:04.113Z,14.13
2023-04-18T08:09:06.150Z,13.20
2023-04-18T08:15:08.866Z,12.90
2023-04-18T08:21:13.192Z,12.60
2023-04-18T08:27:14.939Z,12.65
2023-04-18T08:33:18.513Z,13.63
2023-04-18T08:39:20.282Z,12.63
2023-04-18T08:45:21.988Z,12.80
2023-04-18T08:51:24.219Z,12.55
2023-04-18T08:57:30.088Z,12.45
2023-04-18T09:03:40.547Z,11.88
2023-04-18T09:09:52.410Z,12.00
2023-04-18T09:15:56.233Z,11.05
2023-04-18T09:22:04.859Z,11.00
2023-04-18T09:28:27.069Z,10.93
2023-04-18T09:34:29.436Z,9.77
2023-04-18T09:40:32.363Z,9.23
2023-04-18T09:46:34.223Z,10.48
2023-04-18T09:52:40.771Z,9.93
2023-04-18T09:58:46.000Z,9.32
2023-04-18T10:04:49.947Z,9.88
2023-04-18T10:10:51.783Z,10.20
2023-04-18T10:16:53.807Z,9.95
2023-04-18T10:22:57.740Z,9.38
2023-04-18T10:29:00.924Z,9.55
2023-04-18T10:35:02.892Z,8.85
2023-04-18T10:41:22.166Z,8.93
2023-04-18T10:47:24.049Z,8.13
2023-04-18T10:53:25.943Z,8.73
2023-04-18T10:59:30.334Z,8.55
2023-04-18T11:11:33.812Z,8.65
2023-04-18T11:17:40.255Z,8.40
2023-04-18T11:23:42.160Z,8.05
2023-04-18T11:29:44.114Z,8.73
2023-04-18T11:35:47.029Z,8.35
2023-04-18T11:41:51.877Z,6.72
2023-04-18T11:47:58.287Z,6.80
2023-04-18T11:54:00.381Z,7.65
2023-04-18T12:00:02.222Z,7.97
2023-04-18T12:06:04.383Z,7.25
2023-04-18T12:12:06.764Z,7.43
2023-04-18T12:18:08.975Z,7.03
2023-04-18T12:24:17.107Z,6.28
2023-04-18T12:30:23.019Z,6.30
2023-04-18T12:36:28.398Z,6.18
2023-04-18T12:42:30.164Z,5.63
2023-04-18T12:48:31.950Z,5.43
2023-04-18T12:54:36.699Z,5.65
2023-04-18T13:00:39.656Z,5.40
2023-04-18T13:06:41.696Z,5.30
2023-04-18T13:12:43.638Z,6.00
2023-04-18T13:18:45.458Z,5.80
2023-04-18T13:24:48.210Z,5.57
2023-04-18T13:30:49.969Z,5.82
2023-04-18T13:36:51.872Z,5.30
2023-04-18T13:42:54.063Z,4.60
2023-04-18T13:48:55.881Z,5.10
2023-04-18T13:54:57.728Z,5.20
2023-04-18T14:00:59.501Z,5.18
2023-04-18T14:07:03.378Z,4.63
2023-04-18T14:13:05.126Z,4.80
2023-04-18T14:19:06.968Z,5.00
2023-04-18T14:25:09.289Z,5.03
2023-04-18T14:31:11.070Z,4.78
2023-04-18T14:37:12.845Z,4.78
2023-04-18T14:43:14.905Z,4.72
2023-04-18T14:49:16.814Z,4.70
2023-04-18T14:55:21.358Z,4.90
2023-04-18T15:01:23.171Z,5.20
2023-04-18T15:07:25.145Z,5.10
2023-04-18T15:13:27.072Z,5.30
2023-04-18T15:19:30.929Z,5.57
2023-04-18T15:25:32.721Z,5.80
2023-04-18T15:31:36.212Z,5.57
2023-04-18T15:37:39.745Z,5.82
2023-04-18T15:43:41.923Z,5.55
2023-04-18T15:49:43.731Z,5.60
2023-04-18T15:55:48.209Z,5.80
2023-04-18T16:01:49.976Z,6.10
2023-04-18T16:07:53.815Z,5.57
2023-04-18T16:13:58.450Z,5.22
2023-04-18T16:20:00.249Z,5.63
2023-04-18T16:26:01.997Z,5.47
2023-04-18T16:32:03.973Z,5.93
2023-04-18T16:38:05.981Z,6.28
2023-04-18T16:44:07.737Z,5.32
2023-04-18T16:50:10.294Z,5.40
2023-04-18T16:56:12.071Z,5.57
2023-04-18T17:02:13.917Z,5.60
2023-04-18T17:08:17.124Z,5.70
2023-04-18T17:14:19.081Z,6.22
2023-04-18T17:20:21.414Z,6.60
2023-04-18T17:26:24.337Z,6.20
2023-04-18T17:32:26.086Z,6.35
2023-04-18T17:38:27.837Z,6.80
2023-04-18T17:44:30.125Z,6.25
2023-04-18T17:50:31.905Z,6.50
2023-04-18T17:56:33.868Z,6.55
2023-04-18T18:02:35.772Z,5.80
2023-04-18T18:08:38.203Z,6.35
2023-04-18T18:14:42.711Z,6.97
2023-04-18T18:20:44.523Z,6.60
2023-04-18T18:26:46.317Z,6.28
2023-04-18T18:32:48.378Z,6.30
2023-04-18T18:38:50.242Z,7.30
2023-04-18T18:44:52.307Z,6.53
2023-04-18T18:50:54.162Z,7.10
2023-04-18T18:56:55.932Z,7.63
2023-04-18T19:02:57.881Z,7.78
2023-04-18T19:08:59.693Z,8.05
2023-04-18T19:15:01.735Z,7.70
2023-04-18T19:21:04.317Z,7.53
2023-04-18T19:27:06.032Z,7.82
2023-04-18T19:33:07.862Z,8.77
2023-04-18T19:39:09.707Z,7.88
2023-04-18T19:45:12.210Z,8.77
2023-04-18T19:51:14.077Z,8.10
2023-04-18T19:57:15.816Z,8.02
2023-04-18T20:03:17.745Z,8.35
2023-04-18T20:09:19.702Z,8.30
2023-04-18T20:15:22.590Z,8.32
2023-04-18T20:21:24.397Z,8.40
2023-04-18T20:27:26.432Z,7.45
2023-04-18T20:33:28.174Z,7.90
2023-04-18T20:39:30.475Z,7.70
2023-04-18T20:45:34.724Z,8.25
2023-04-18T20:51:37.156Z,7.68
2023-04-18T20:57:39.048Z,7.57
2023-04-18T21:03:40.961Z,7.00
2023-04-18T21:09:42.873Z,7.40
2023-04-18T21:15:44.754Z,7.05
2023-04-18T21:21:46.464Z,7.07
2023-04-18T21:27:50.431Z,7.20
2023-04-18T21:33:53.790Z,7.40
2023-04-18T21:39:55.484Z,6.72
2023-04-18T21:45:57.347Z,5.78
2023-04-18T21:51:59.300Z,6.25
2023-04-18T21:58:01.043Z,5.55
2023-04-18T22:04:02.973Z,5.50
2023-04-18T22:10:05.919Z,5.32
2023-04-18T22:16:09.420Z,4.85
2023-04-18T22:22:11.531Z,5.00
2023-04-18T22:28:13.235Z,4.82
2023-04-18T22:34:15.161Z,4.78
2023-04-18T22:40:17.306Z,4.65
2023-04-18T22:46:19.175Z,4.35
2023-04-18T22:52:23.769Z,4.05
2023-04-18T22:58:25.752Z,3.53
2023-04-18T23:04:30.192Z,3.92
2023-04-18T23:16:33.674Z,3.85
2023-04-18T23:22:36.971Z,3.75
2023-04-18T23:28:38.716Z,4.22
2023-04-18T23:34:40.816Z,3.78
2023-04-18T23:40:42.747Z,4.05
2023-04-18T23:46:44.600Z,4.28
2023-04-18T23:52:46.527Z,4.30
2023-04-18T23:58:48.276Z,4.13
